createdAt,value
2018-06-19T00:02:12.309Z,4.17
2018-06-19T00:04:41.132Z,5.00
2018-06-19T00:07:09.837Z,5.63
2018-06-19T00:09:38.529Z,5.10
2018-06-19T00:12:07.328Z,5.63
2018-06-19T00:14:36.143Z,5.50
2018-06-19T00:17:05.111Z,3.20
2018-06-19T00:19:35.545Z,5.00
2018-06-19T00:22:04.364Z,4.33
2018-06-19T00:24:33.182Z,5.07
2018-06-19T00:27:01.993Z,4.63
2018-06-19T00:29:30.819Z,4.90
2018-06-19T00:31:59.620Z,3.70
2018-06-19T00:34:28.435Z,4.53
2018-06-19T00:36:57.246Z,4.07
2018-06-19T00:39:26.061Z,3.30
2018-06-19T00:41:54.890Z,3.50
2018-06-19T00:44:23.706Z,5.77
2018-06-19T00:46:53.456Z,5.80
2018-06-19T00:49:22.168Z,5.10
2018-06-19T00:51:50.963Z,5.87
2018-06-19T00:54:19.763Z,6.77
2018-06-19T00:56:52.760Z,4.17
2018-06-19T00:59:21.656Z,5.43
2018-06-19T01:01:50.767Z,3.90
2018-06-19T01:04:19.572Z,3.93
2018-06-19T01:06:48.394Z,4.77
2018-06-19T01:09:17.279Z,4.77
2018-06-19T01:11:46.992Z,4.37
2018-06-19T01:14:15.808Z,6.40
2018-06-19T01:16:44.643Z,3.97
2018-06-19T01:19:13.437Z,8.40
2018-06-19T01:21:42.253Z,5.73
2018-06-19T01:24:11.056Z,4.03
2018-06-19T01:26:39.865Z,4.10
2018-06-19T01:29:09.234Z,3.67
2018-06-19T01:31:38.048Z,5.53
2018-06-19T01:34:06.843Z,6.90
2018-06-19T01:36:35.663Z,4.33
2018-06-19T01:39:08.002Z,4.27
2018-06-19T01:41:36.913Z,4.67
2018-06-19T01:44:05.682Z,7.23
2018-06-19T01:46:34.534Z,4.17
2018-06-19T01:49:03.419Z,6.70
2018-06-19T01:51:32.222Z,6.47
2018-06-19T01:54:01.102Z,6.07
2018-06-19T01:56:30.002Z,6.50
2018-06-19T01:58:58.787Z,5.00
2018-06-19T02:01:27.583Z,4.53
2018-06-19T02:03:56.378Z,5.30
2018-06-19T02:06:25.169Z,5.20
2018-06-19T02:08:53.975Z,4.53
2018-06-19T02:11:22.774Z,4.83
2018-06-19T02:13:51.569Z,4.87
2018-06-19T02:16:20.375Z,5.97
2018-06-19T02:18:49.174Z,3.97
2018-06-19T02:21:18.020Z,6.43
2018-06-19T02:23:46.778Z,5.47
2018-06-19T02:26:15.610Z,4.17
2018-06-19T02:28:44.406Z,5.03
2018-06-19T02:31:13.202Z,4.97
2018-06-19T02:33:42.003Z,4.43
2018-06-19T02:36:10.812Z,5.83
2018-06-19T02:38:39.614Z,4.67
2018-06-19T02:41:08.409Z,5.13
2018-06-19T02:43:37.204Z,5.50
2018-06-19T02:46:06.010Z,5.03
2018-06-19T02:48:34.808Z,4.27
2018-06-19T02:51:04.342Z,5.63
2018-06-19T02:53:33.136Z,6.87
2018-06-19T02:56:02.170Z,4.50
2018-06-19T02:58:31.486Z,4.73
2018-06-19T03:01:00.303Z,5.33
2018-06-19T03:03:29.094Z,5.20
2018-06-19T03:05:57.878Z,6.07
2018-06-19T03:08:26.777Z,5.40
2018-06-19T03:10:55.570Z,5.10
2018-06-19T03:13:24.372Z,5.53
2018-06-19T03:15:53.163Z,5.30
2018-06-19T03:18:21.958Z,6.07
2018-06-19T03:20:50.750Z,5.70
2018-06-19T03:23:19.542Z,8.43
2018-06-19T03:25:48.340Z,7.20
2018-06-19T03:28:17.174Z,6.03
2018-06-19T03:30:45.982Z,6.07
2018-06-19T03:33:14.791Z,7.67
2018-06-19T03:35:43.583Z,7.17
2018-06-19T03:38:12.674Z,6.87
2018-06-19T03:40:41.478Z,7.30
2018-06-19T03:43:10.274Z,6.90
2018-06-19T03:45:39.054Z,7.50
2018-06-19T03:48:07.851Z,6.30
2018-06-19T03:50:36.650Z,8.57
2018-06-19T03:53:05.602Z,9.27
2018-06-19T03:58:31.747Z,7.30
2018-06-19T04:01:00.598Z,7.57
2018-06-19T04:03:29.432Z,7.50
2018-06-19T04:05:58.278Z,11.67
2018-06-19T04:08:27.137Z,8.70
2018-06-19T04:10:55.956Z,8.20
2018-06-19T04:13:24.750Z,8.87
2018-06-19T04:15:53.551Z,9.10
2018-06-19T04:18:22.377Z,9.10
2018-06-19T04:20:51.187Z,9.07
2018-06-19T04:23:20.408Z,8.90
2018-06-19T04:25:49.246Z,9.60
2018-06-19T04:28:18.058Z,9.57
2018-06-19T04:30:46.863Z,8.73
2018-06-19T04:33:15.669Z,9.00
2018-06-19T04:35:44.502Z,8.37
2018-06-19T04:38:13.318Z,8.37
2018-06-19T04:40:42.126Z,7.50
2018-06-19T04:43:10.911Z,7.67
2018-06-19T04:45:39.724Z,6.73
2018-06-19T04:48:08.535Z,6.77
2018-06-19T04:50:37.338Z,8.43
2018-06-19T04:53:06.137Z,5.90
2018-06-19T04:55:34.996Z,5.80
2018-06-19T04:58:03.786Z,5.83
2018-06-19T05:00:32.603Z,5.50
2018-06-19T05:03:01.403Z,5.30
2018-06-19T05:05:30.206Z,4.50
2018-06-19T05:07:59.027Z,4.83
2018-06-19T05:10:27.830Z,4.90
2018-06-19T05:12:56.837Z,4.90
2018-06-19T05:15:25.479Z,4.50
2018-06-19T05:17:54.278Z,5.73
2018-06-19T05:20:23.080Z,7.30
2018-06-19T05:22:51.923Z,3.77
2018-06-19T05:25:20.916Z,4.70
2018-06-19T05:27:49.723Z,5.33
2018-06-19T05:30:18.545Z,3.40
2018-06-19T05:32:47.325Z,3.97
2018-06-19T05:35:16.315Z,4.77
2018-06-19T05:37:45.078Z,4.43
2018-06-19T05:40:14.084Z,5.13
2018-06-19T05:42:42.938Z,3.70
2018-06-19T05:45:11.742Z,5.87
2018-06-19T05:47:40.614Z,3.33
2018-06-19T05:50:09.407Z,5.47
2018-06-19T05:52:38.206Z,3.37
2018-06-19T05:55:06.999Z,2.93
2018-06-19T05:57:35.871Z,4.33
2018-06-19T06:00:05.228Z,4.43
2018-06-19T06:02:34.024Z,3.90
2018-06-19T06:05:02.646Z,3.37
2018-06-19T06:07:31.323Z,3.10
2018-06-19T06:10:00.119Z,4.63
2018-06-19T06:12:29.456Z,4.47
2018-06-19T06:14:58.307Z,3.27
2018-06-19T06:17:27.119Z,2.90
2018-06-19T06:19:55.914Z,2.93
2018-06-19T06:22:24.711Z,3.90
2018-06-19T06:24:53.590Z,3.37
2018-06-19T06:27:22.383Z,5.03
2018-06-19T06:29:51.183Z,4.33
2018-06-19T06:32:20.000Z,5.93
2018-06-19T06:34:48.787Z,4.90
2018-06-19T06:37:17.592Z,3.57
2018-06-19T06:39:46.478Z,5.10
2018-06-19T06:42:15.382Z,3.23
2018-06-19T06:44:44.208Z,5.47
2018-06-19T06:47:12.982Z,3.43
2018-06-19T06:49:42.452Z,4.77
2018-06-19T06:52:11.254Z,4.10
2018-06-19T06:54:40.626Z,4.13
2018-06-19T06:57:09.429Z,3.53
2018-06-19T06:59:38.232Z,3.90
2018-06-19T07:02:07.027Z,3.57
2018-06-19T07:04:36.936Z,6.03
2018-06-19T07:07:05.752Z,4.97
2018-06-19T07:09:34.547Z,3.60
2018-06-19T07:12:03.274Z,5.73
2018-06-19T07:14:31.838Z,2.73
2018-06-19T07:17:00.478Z,2.83
2018-06-19T07:19:29.292Z,4.23
2018-06-19T07:21:58.005Z,2.60
2018-06-19T07:24:26.792Z,4.83
2018-06-19T07:26:55.608Z,3.63
2018-06-19T07:29:24.496Z,5.40
2018-06-19T07:31:53.399Z,4.40
2018-06-19T07:34:22.187Z,4.70
2018-06-19T07:36:51.149Z,6.00
2018-06-19T07:39:19.868Z,3.83
2018-06-19T07:41:48.659Z,4.37
2018-06-19T07:44:17.464Z,3.60
2018-06-19T07:46:46.279Z,4.60
2018-06-19T07:49:15.122Z,4.97
2018-06-19T07:51:43.915Z,3.70
2018-06-19T07:54:12.718Z,6.63
2018-06-19T07:56:41.514Z,3.40
2018-06-19T07:59:10.311Z,4.80
2018-06-19T08:01:39.123Z,4.90
2018-06-19T08:04:08.171Z,3.20
2018-06-19T08:06:36.972Z,5.97
2018-06-19T08:09:07.594Z,3.67
2018-06-19T08:11:36.386Z,5.27
2018-06-19T08:14:05.210Z,5.07
2018-06-19T08:16:34.304Z,5.00
2018-06-19T08:19:03.126Z,6.63
2018-06-19T08:21:31.935Z,5.20
2018-06-19T08:24:00.732Z,5.07
2018-06-19T08:26:29.580Z,4.80
2018-06-19T08:28:58.400Z,6.73
2018-06-19T08:31:27.567Z,4.80
2018-06-19T08:33:56.386Z,3.90
2018-06-19T08:36:25.195Z,3.33
2018-06-19T08:38:54.015Z,6.80
2018-06-19T08:41:22.814Z,5.27
2018-06-19T08:43:51.642Z,5.43
2018-06-19T08:46:20.442Z,6.60
2018-06-19T08:48:49.878Z,5.17
2018-06-19T08:51:18.726Z,3.43
2018-06-19T08:53:47.531Z,4.83
2018-06-19T08:56:16.329Z,7.17
2018-06-19T08:58:45.138Z,3.20
2018-06-19T09:01:14.770Z,4.37
2018-06-19T09:03:43.563Z,4.23
2018-06-19T09:06:12.382Z,4.40
2018-06-19T09:08:41.207Z,4.27
2018-06-19T09:11:10.018Z,5.80
2018-06-19T09:13:38.815Z,4.00
2018-06-19T09:16:07.640Z,4.80
2018-06-19T09:18:36.871Z,5.13
2018-06-19T09:21:06.381Z,3.00
2018-06-19T09:23:35.179Z,5.97
2018-06-19T09:26:04.028Z,5.60
2018-06-19T09:28:32.794Z,6.47
2018-06-19T09:31:01.608Z,4.47
2018-06-19T09:33:30.420Z,6.30
2018-06-19T09:35:59.218Z,5.30
2018-06-19T09:38:28.035Z,5.60
2018-06-19T09:40:56.850Z,7.60
2018-06-19T09:43:25.655Z,5.70
2018-06-19T09:45:54.465Z,6.17
2018-06-19T09:48:23.262Z,4.00
2018-06-19T09:50:52.067Z,2.93
2018-06-19T09:53:20.933Z,4.50
2018-06-19T09:55:49.810Z,4.57
2018-06-19T09:58:19.206Z,2.80
2018-06-19T10:00:47.955Z,2.87
2018-06-19T10:03:16.751Z,3.27
2018-06-19T10:05:45.620Z,2.67
2018-06-19T10:08:14.391Z,2.50
2018-06-19T10:10:43.203Z,3.13
2018-06-19T10:13:12.019Z,4.73
2018-06-19T10:15:40.838Z,6.87
2018-06-19T10:18:09.730Z,2.57
2018-06-19T10:20:38.592Z,3.03
2018-06-19T10:23:07.355Z,4.97
2018-06-19T10:25:36.199Z,4.43
2018-06-19T10:28:05.060Z,5.10
2018-06-19T10:30:33.864Z,3.93
2018-06-19T10:33:02.684Z,3.20
2018-06-19T10:35:31.539Z,1.60
2018-06-19T10:38:00.354Z,2.03
2018-06-19T10:40:29.159Z,2.27
2018-06-19T10:42:57.971Z,2.93
2018-06-19T10:45:26.782Z,3.40
2018-06-19T10:47:55.678Z,1.70
2018-06-19T10:50:24.684Z,1.80
2018-06-19T10:52:53.522Z,2.03
2018-06-19T10:55:22.367Z,2.30
2018-06-19T10:57:51.176Z,2.47
2018-06-19T11:00:20.563Z,2.23
2018-06-19T11:02:49.434Z,1.87
2018-06-19T11:05:18.239Z,2.10
2018-06-19T11:07:47.057Z,3.23
2018-06-19T11:10:16.107Z,2.93
2018-06-19T11:12:44.899Z,1.97
2018-06-19T11:15:13.695Z,2.07
2018-06-19T11:17:42.514Z,2.50
2018-06-19T11:20:11.711Z,2.70
2018-06-19T11:22:40.519Z,3.33
2018-06-19T11:25:09.352Z,3.20
2018-06-19T11:27:38.843Z,5.60
2018-06-19T11:30:07.659Z,5.03
2018-06-19T11:32:36.476Z,2.70
2018-06-19T11:35:05.277Z,4.13
2018-06-19T11:37:34.083Z,2.50
2018-06-19T11:40:02.891Z,1.80
2018-06-19T11:42:31.699Z,3.77
2018-06-19T11:45:00.731Z,2.83
2018-06-19T11:47:29.556Z,8.03
2018-06-19T11:49:58.359Z,4.00
2018-06-19T11:52:27.176Z,3.17
2018-06-19T11:54:55.975Z,2.57
2018-06-19T11:57:24.783Z,5.10
2018-06-19T11:59:53.603Z,4.13
2018-06-19T12:02:22.475Z,3.97
2018-06-19T12:04:51.351Z,3.60
2018-06-19T12:07:20.723Z,6.23
2018-06-19T12:09:49.539Z,2.87
2018-06-19T12:12:18.451Z,3.43
2018-06-19T12:14:47.275Z,2.03
2018-06-19T12:17:16.958Z,3.00
2018-06-19T12:19:45.939Z,4.50
2018-06-19T12:22:14.730Z,3.63
2018-06-19T12:24:43.536Z,2.50
2018-06-19T12:27:12.399Z,3.43
2018-06-19T12:29:41.225Z,4.17
2018-06-19T12:32:10.072Z,3.20
2018-06-19T12:34:39.073Z,2.30
2018-06-19T12:37:07.962Z,3.90
2018-06-19T12:39:36.784Z,3.43
2018-06-19T12:42:05.639Z,3.47
2018-06-19T12:44:34.738Z,7.63
2018-06-19T12:47:03.678Z,3.03
2018-06-19T12:49:44.064Z,5.30
2018-06-19T12:52:24.397Z,3.50
2018-06-19T12:56:08.590Z,12.87
2018-06-19T12:58:37.409Z,3.83
2018-06-19T13:01:06.315Z,6.07
2018-06-19T13:03:46.583Z,3.80
2018-06-19T13:06:29.374Z,3.50
2018-06-19T13:08:58.191Z,3.60
2018-06-19T13:11:27.015Z,3.40
2018-06-19T13:14:07.482Z,3.80
2018-06-19T13:16:47.786Z,3.33
2018-06-19T13:19:28.275Z,2.60
2018-06-19T13:21:57.098Z,5.30
2018-06-19T13:24:25.993Z,2.83
2018-06-19T13:26:54.811Z,4.60
2018-06-19T13:29:37.093Z,3.87
2018-06-19T13:32:05.928Z,4.40
2018-06-19T13:34:36.490Z,3.87
2018-06-19T13:37:05.858Z,4.00
2018-06-19T13:39:35.479Z,4.23
2018-06-19T13:42:17.087Z,4.70
2018-06-19T13:44:53.646Z,4.83
2018-06-19T13:47:24.085Z,9.83
2018-06-19T13:49:52.897Z,3.93
2018-06-19T13:52:21.703Z,4.03
2018-06-19T13:54:50.506Z,4.80
2018-06-19T13:57:46.348Z,3.53
2018-06-19T14:00:17.326Z,3.87
2018-06-19T14:02:46.142Z,4.20
2018-06-19T14:05:16.160Z,4.33
2018-06-19T14:08:05.635Z,3.70
2018-06-19T14:10:45.782Z,4.37
2018-06-19T14:13:14.599Z,4.03
2018-06-19T14:15:45.286Z,4.80
2018-06-19T14:18:15.226Z,3.83
2018-06-19T14:20:44.129Z,4.70
2018-06-19T14:23:13.365Z,4.53
2018-06-19T14:25:42.402Z,3.70
2018-06-19T14:28:11.514Z,3.70
2018-06-19T14:30:40.315Z,4.30
2018-06-19T14:33:09.174Z,5.93
2018-06-19T14:35:37.922Z,6.23
2018-06-19T14:38:06.748Z,5.93
2018-06-19T14:40:35.597Z,4.93
2018-06-19T14:43:04.723Z,3.90
2018-06-19T14:45:33.504Z,4.23
2018-06-19T14:48:02.309Z,4.43
2018-06-19T14:50:31.142Z,3.90
2018-06-19T14:52:59.955Z,5.00
2018-06-19T14:55:29.485Z,3.60
2018-06-19T14:57:58.283Z,5.73
2018-06-19T15:00:27.090Z,3.80
2018-06-19T15:02:55.890Z,4.00
2018-06-19T15:05:24.799Z,5.60
2018-06-19T15:07:54.559Z,6.17
2018-06-19T15:10:23.609Z,6.93
2018-06-19T15:12:52.407Z,4.93
2018-06-19T15:15:21.276Z,4.77
2018-06-19T15:17:50.065Z,4.50
2018-06-19T15:20:18.902Z,3.93
2018-06-19T15:22:47.719Z,4.57
2018-06-19T15:25:16.530Z,5.47
2018-06-19T15:27:45.438Z,3.77
2018-06-19T15:30:14.315Z,6.10
2018-06-19T15:32:43.208Z,4.63
2018-06-19T15:35:12.011Z,4.47
2018-06-19T15:37:40.857Z,5.00
2018-06-19T15:40:09.627Z,5.00
2018-06-19T15:42:38.456Z,5.70
2018-06-19T15:45:07.270Z,5.30
2018-06-19T15:47:36.087Z,5.30
2018-06-19T15:50:05.250Z,5.27
2018-06-19T15:52:34.123Z,5.73
2018-06-19T15:55:02.971Z,4.70
2018-06-19T15:57:31.790Z,6.47
2018-06-19T16:00:00.590Z,5.67
2018-06-19T16:02:29.399Z,7.07
2018-06-19T16:04:58.203Z,5.80
2018-06-19T16:07:27.044Z,7.33
2018-06-19T16:09:55.854Z,5.40
2018-06-19T16:12:24.722Z,5.50
2018-06-19T16:14:53.525Z,5.70
2018-06-19T16:17:22.334Z,6.30
2018-06-19T16:19:51.127Z,5.87
2018-06-19T16:22:19.979Z,7.73
2018-06-19T16:24:48.780Z,5.60
2018-06-19T16:27:17.654Z,5.60
2018-06-19T16:29:46.843Z,5.27
2018-06-19T16:32:15.642Z,6.00
2018-06-19T16:34:44.526Z,6.20
2018-06-19T16:37:13.342Z,5.03
2018-06-19T16:39:42.203Z,5.83
2018-06-19T16:42:11.013Z,6.83
2018-06-19T16:44:39.815Z,5.27
2018-06-19T16:47:08.623Z,5.87
2018-06-19T16:49:38.066Z,5.57
2018-06-19T16:52:07.330Z,5.70
2018-06-19T16:54:36.145Z,5.57
2018-06-19T16:57:05.004Z,6.00
2018-06-19T16:59:34.099Z,6.07
2018-06-19T17:02:03.257Z,6.70
2018-06-19T17:04:32.127Z,5.83
2018-06-19T17:07:01.112Z,6.57
2018-06-19T17:09:30.018Z,6.07
2018-06-19T17:11:58.839Z,6.13
2018-06-19T17:14:27.631Z,9.00
2018-06-19T17:16:56.439Z,7.90
2018-06-19T17:19:25.226Z,6.37
2018-06-19T17:21:54.035Z,6.30
2018-06-19T17:24:22.855Z,7.73
2018-06-19T17:26:51.788Z,6.77
2018-06-19T17:29:20.587Z,6.73
2018-06-19T17:31:49.378Z,6.13
2018-06-19T17:34:18.268Z,6.30
2018-06-19T17:36:47.083Z,6.20
2018-06-19T17:39:15.892Z,5.83
2018-06-19T17:41:44.692Z,6.43
2018-06-19T17:44:14.361Z,6.20
2018-06-19T17:46:43.615Z,6.57
2018-06-19T17:49:12.422Z,6.33
2018-06-19T17:51:41.219Z,6.77
2018-06-19T17:54:10.130Z,6.27
2018-06-19T17:56:38.930Z,6.70
2018-06-19T17:59:07.854Z,6.20
2018-06-19T18:01:36.626Z,7.07
2018-06-19T18:04:05.531Z,5.53
2018-06-19T18:06:34.378Z,5.77
2018-06-19T18:09:03.432Z,5.80
2018-06-19T18:11:32.236Z,5.40
2018-06-19T18:14:01.042Z,6.53
2018-06-19T18:16:29.934Z,7.97
2018-06-19T18:18:58.752Z,6.00
2018-06-19T18:21:27.575Z,6.80
2018-06-19T18:23:56.375Z,6.43
2018-06-19T18:26:25.594Z,8.47
2018-06-19T18:28:54.488Z,8.90
2018-06-19T18:31:23.287Z,8.90
2018-06-19T18:33:52.090Z,9.33
2018-06-19T18:36:20.887Z,10.50
2018-06-19T18:38:49.711Z,11.37
2018-06-19T18:41:18.837Z,12.20
2018-06-19T18:43:47.653Z,10.67
2018-06-19T18:46:16.515Z,11.23
2018-06-19T18:48:45.329Z,10.23
2018-06-19T18:51:14.197Z,12.57
2018-06-19T18:53:43.011Z,11.67
2018-06-19T18:56:11.879Z,11.10
2018-06-19T18:58:40.706Z,11.37
2018-06-19T19:01:09.534Z,12.53
2018-06-19T19:03:38.346Z,10.87
2018-06-19T19:06:07.224Z,11.93
2018-06-19T19:08:36.046Z,11.60
2018-06-19T19:11:04.882Z,10.83
2018-06-19T19:13:33.794Z,11.00
2018-06-19T19:16:08.195Z,10.87
2018-06-19T19:18:42.599Z,10.67
2018-06-19T19:21:11.731Z,11.47
2018-06-19T19:23:40.657Z,12.90
2018-06-19T19:26:09.471Z,11.40
2018-06-19T19:28:44.061Z,11.33
2018-06-19T19:31:12.799Z,11.50
2018-06-19T19:33:41.619Z,11.40
2018-06-19T19:36:14.699Z,10.67
2018-06-19T19:38:48.959Z,11.60
2018-06-19T19:41:17.778Z,12.00
2018-06-19T19:43:46.595Z,12.20
2018-06-19T19:46:20.961Z,12.30
2018-06-19T19:48:55.263Z,11.47
2018-06-19T19:51:24.410Z,10.97
2018-06-19T19:53:53.241Z,11.03
2018-06-19T19:56:27.664Z,10.60
2018-06-19T19:58:56.498Z,11.17
2018-06-19T20:01:25.312Z,10.83
2018-06-19T20:03:54.126Z,11.03
2018-06-19T20:06:22.954Z,10.73
2018-06-19T20:08:51.870Z,11.67
2018-06-19T20:11:20.686Z,11.27
2018-06-19T20:13:49.490Z,11.43
2018-06-19T20:16:18.308Z,10.57
2018-06-19T20:18:47.130Z,11.57
2018-06-19T20:21:15.947Z,11.60
2018-06-19T20:23:45.061Z,10.83
2018-06-19T20:26:13.867Z,10.83
2018-06-19T20:28:42.903Z,10.57
2018-06-19T20:31:11.720Z,10.73
2018-06-19T20:33:40.912Z,10.73
2018-06-19T20:36:10.209Z,10.97
2018-06-19T20:38:38.993Z,11.50
2018-06-19T20:41:08.164Z,11.00
2018-06-19T20:43:36.967Z,12.67
2018-06-19T20:46:05.770Z,11.67
2018-06-19T20:48:35.027Z,10.53
2018-06-19T20:51:03.839Z,10.40
2018-06-19T20:53:32.943Z,10.37
2018-06-19T20:56:01.756Z,10.30
2018-06-19T20:58:30.567Z,10.50
2018-06-19T21:00:59.373Z,10.77
2018-06-19T21:03:28.211Z,10.57
2018-06-19T21:05:57.052Z,11.10
2018-06-19T21:08:31.528Z,10.13
2018-06-19T21:11:00.379Z,10.23
2018-06-19T21:13:29.184Z,9.93
2018-06-19T21:15:58.007Z,9.97
2018-06-19T21:18:26.709Z,10.70
2018-06-19T21:20:55.298Z,11.63
2018-06-19T21:23:24.092Z,10.90
2018-06-19T21:25:52.899Z,10.13
2018-06-19T21:28:21.722Z,10.70
2018-06-19T21:30:50.670Z,10.63
2018-06-19T21:33:19.475Z,11.63
2018-06-19T21:35:48.383Z,10.43
2018-06-19T21:38:17.171Z,10.97
2018-06-19T21:40:46.066Z,11.50
2018-06-19T21:43:14.826Z,11.93
2018-06-19T21:45:43.644Z,11.20
2018-06-19T21:48:12.481Z,10.60
2018-06-19T21:50:41.479Z,14.07
2018-06-19T21:53:10.302Z,10.97
2018-06-19T21:55:39.112Z,12.77
2018-06-19T21:58:07.919Z,11.53
2018-06-19T22:00:36.726Z,10.93
2018-06-19T22:03:05.766Z,12.90
2018-06-19T22:05:34.567Z,12.33
2018-06-19T22:08:03.383Z,11.90
2018-06-19T22:10:32.207Z,12.20
2018-06-19T22:13:01.039Z,11.93
2018-06-19T22:15:30.068Z,13.27
2018-06-19T22:17:58.896Z,12.70
2018-06-19T22:20:27.691Z,12.73
2018-06-19T22:22:56.504Z,14.20
2018-06-19T22:25:25.308Z,15.60
2018-06-19T22:27:54.264Z,14.33
2018-06-19T22:30:23.085Z,13.57
2018-06-19T22:32:51.884Z,14.60
2018-06-19T22:35:20.735Z,13.27
2018-06-19T22:37:49.540Z,16.20
2018-06-19T22:40:18.446Z,15.10
2018-06-19T22:42:47.248Z,13.97
2018-06-19T22:45:16.076Z,13.30
2018-06-19T22:47:44.875Z,15.27
2018-06-19T22:50:13.686Z,18.43
2018-06-19T22:52:42.499Z,14.93
2018-06-19T22:55:11.323Z,13.10
2018-06-19T22:57:40.143Z,13.63
2018-06-19T23:00:08.970Z,14.63
2018-06-19T23:02:37.583Z,14.57
2018-06-19T23:05:06.408Z,14.50
2018-06-19T23:07:35.215Z,15.27
2018-06-19T23:10:04.103Z,15.83
2018-06-19T23:12:32.894Z,16.73
2018-06-19T23:15:01.805Z,19.10
2018-06-19T23:17:30.680Z,18.00
2018-06-19T23:19:59.502Z,17.67
2018-06-19T23:22:28.350Z,21.00
2018-06-19T23:24:57.158Z,19.80
2018-06-19T23:27:25.969Z,19.40
2018-06-19T23:29:54.790Z,19.03
2018-06-19T23:32:24.452Z,18.13
2018-06-19T23:34:53.140Z,20.13
2018-06-19T23:37:22.040Z,17.47
2018-06-19T23:39:50.830Z,19.43
2018-06-19T23:42:19.647Z,16.20
2018-06-19T23:44:48.479Z,17.77
2018-06-19T23:47:17.278Z,16.37
2018-06-19T23:49:46.091Z,17.00
2018-06-19T23:52:14.940Z,18.77
2018-06-19T23:54:43.755Z,23.37
2018-06-19T23:57:12.562Z,16.77
2018-06-19T23:59:41.371Z,18.23
